createdAt,value
2022-10-30T00:00:53.655Z,17.10
2022-10-30T00:03:21.851Z,20.33
2022-10-30T00:05:52.567Z,17.37
2022-10-30T00:08:25.489Z,22.63
2022-10-30T00:10:54.272Z,19.57
2022-10-30T00:13:23.760Z,15.13
2022-10-30T00:15:53.466Z,16.60
2022-10-30T00:18:22.174Z,18.50
2022-10-30T00:20:50.631Z,19.17
2022-10-30T00:23:18.807Z,16.90
2022-10-30T00:25:46.948Z,19.47
2022-10-30T00:28:15.353Z,19.93
2022-10-30T00:30:46.423Z,20.37
2022-10-30T00:33:14.800Z,16.87
2022-10-30T00:35:49.327Z,22.03
2022-10-30T00:38:17.653Z,18.57
2022-10-30T00:40:45.822Z,18.37
2022-10-30T00:43:35.598Z,16.53
2022-10-30T00:46:12.523Z,14.73
2022-10-30T00:48:42.511Z,16.07
2022-10-30T00:51:13.132Z,18.10
2022-10-30T00:53:42.794Z,15.47
2022-10-30T00:56:12.728Z,18.97
2022-10-30T00:58:46.398Z,14.20
2022-10-30T01:01:20.838Z,23.03
2022-10-30T01:03:53.732Z,23.13
2022-10-30T01:06:22.371Z,18.63
2022-10-30T01:08:57.045Z,16.20
2022-10-30T01:11:28.288Z,15.30
2022-10-30T01:14:02.309Z,16.03
2022-10-30T01:16:46.065Z,11.10
2022-10-30T01:19:26.436Z,11.00
2022-10-30T01:22:12.923Z,14.73
2022-10-30T01:24:54.164Z,12.20
2022-10-30T01:27:36.665Z,13.37
2022-10-30T01:30:30.683Z,12.77
2022-10-30T01:33:18.371Z,12.80
2022-10-30T01:35:53.545Z,11.80
2022-10-30T01:38:27.205Z,17.70
2022-10-30T01:40:56.014Z,15.03
2022-10-30T01:43:24.264Z,13.57
2022-10-30T01:46:13.947Z,11.97
2022-10-30T01:49:05.729Z,14.47
2022-10-30T01:51:46.301Z,14.57
2022-10-30T01:54:25.504Z,16.67
2022-10-30T01:57:02.504Z,14.63
2022-10-30T01:59:37.968Z,15.83
2022-10-30T02:02:09.021Z,12.47
2022-10-30T02:04:40.197Z,20.00
2022-10-30T02:07:09.779Z,23.10
2022-10-30T02:09:43.737Z,13.97
2022-10-30T02:12:14.855Z,12.50
2022-10-30T02:14:46.560Z,14.73
2022-10-30T02:17:15.087Z,13.60
2022-10-30T02:19:44.827Z,14.70
2022-10-30T02:22:14.459Z,12.13
2022-10-30T02:24:42.638Z,12.00
2022-10-30T02:27:10.891Z,17.07
2022-10-30T02:29:41.713Z,13.67
2022-10-30T02:32:09.880Z,16.00
2022-10-30T02:34:38.376Z,13.70
2022-10-30T02:37:06.531Z,13.30
2022-10-30T02:39:36.170Z,18.53
2022-10-30T02:42:05.780Z,13.73
2022-10-30T02:44:34.262Z,9.80
2022-10-30T02:47:02.704Z,8.90
2022-10-30T02:49:30.951Z,11.17
2022-10-30T02:51:59.111Z,9.33
2022-10-30T02:54:27.254Z,10.70
2022-10-30T02:56:57.052Z,9.37
2022-10-30T02:59:25.231Z,8.20
2022-10-30T03:01:53.786Z,12.07
2022-10-30T03:04:22.176Z,11.70
2022-10-30T03:06:50.282Z,11.33
2022-10-30T03:09:18.716Z,10.43
2022-10-30T03:11:47.408Z,12.57
2022-10-30T03:14:17.583Z,11.20
2022-10-30T03:16:45.770Z,12.93
2022-10-30T03:19:13.920Z,9.60
2022-10-30T03:21:42.040Z,15.87
2022-10-30T03:24:10.258Z,12.47
2022-10-30T03:26:38.376Z,10.40
2022-10-30T03:29:08.374Z,9.80
2022-10-30T03:31:38.011Z,13.00
2022-10-30T03:34:20.312Z,10.07
2022-10-30T03:36:48.750Z,9.33
2022-10-30T03:39:16.971Z,10.03
2022-10-30T03:41:47.234Z,9.80
2022-10-30T03:44:15.369Z,11.27
2022-10-30T03:46:44.870Z,11.37
2022-10-30T03:49:22.574Z,12.30
2022-10-30T03:51:50.811Z,16.43
2022-10-30T03:54:19.033Z,10.00
2022-10-30T03:56:47.788Z,14.50
2022-10-30T03:59:17.984Z,8.43
2022-10-30T04:01:59.270Z,10.47
2022-10-30T04:04:27.604Z,10.00
2022-10-30T04:06:55.722Z,8.77
2022-10-30T04:09:24.282Z,9.10
2022-10-30T04:11:52.436Z,7.87
2022-10-30T04:14:20.546Z,15.27
2022-10-30T04:16:49.734Z,8.13
2022-10-30T04:19:20.068Z,10.80
2022-10-30T04:21:49.959Z,11.57
2022-10-30T04:24:19.649Z,12.90
2022-10-30T04:26:52.580Z,11.40
2022-10-30T04:29:20.714Z,11.57
2022-10-30T04:31:48.931Z,12.13
2022-10-30T04:34:17.128Z,14.53
2022-10-30T04:36:46.608Z,8.67
2022-10-30T04:39:15.139Z,11.13
2022-10-30T04:41:44.486Z,12.27
2022-10-30T04:44:19.094Z,11.50
2022-10-30T04:46:47.292Z,10.90
2022-10-30T04:49:15.665Z,10.13
2022-10-30T04:51:43.832Z,9.20
2022-10-30T04:54:13.407Z,8.43
2022-10-30T04:56:41.526Z,10.13
2022-10-30T04:59:09.746Z,10.07
2022-10-30T05:01:38.674Z,12.60
2022-10-30T05:04:08.390Z,13.33
2022-10-30T05:06:37.150Z,15.03
2022-10-30T05:09:05.335Z,14.20
2022-10-30T05:11:38.470Z,12.47
2022-10-30T05:14:06.615Z,12.10
2022-10-30T05:16:34.763Z,10.00
2022-10-30T05:19:05.311Z,10.10
2022-10-30T05:21:35.258Z,12.40
2022-10-30T05:24:03.491Z,10.23
2022-10-30T05:26:42.439Z,10.83
2022-10-30T05:29:10.589Z,12.50
2022-10-30T05:31:39.865Z,14.73
2022-10-30T05:34:14.166Z,19.00
2022-10-30T05:36:42.973Z,17.43
2022-10-30T05:39:15.335Z,17.87
2022-10-30T05:41:48.678Z,11.87
2022-10-30T05:44:34.346Z,13.97
2022-10-30T05:47:07.453Z,11.90
2022-10-30T05:49:36.784Z,11.03
2022-10-30T05:52:08.419Z,12.00
2022-10-30T05:54:37.197Z,9.57
2022-10-30T05:57:11.950Z,14.43
2022-10-30T05:59:41.201Z,13.83
2022-10-30T06:02:09.557Z,10.27
2022-10-30T06:04:38.081Z,10.97
2022-10-30T06:07:11.447Z,11.73
2022-10-30T06:09:39.739Z,13.80
2022-10-30T06:12:29.395Z,19.50
2022-10-30T06:15:15.926Z,16.13
2022-10-30T06:17:44.055Z,20.60
2022-10-30T06:20:17.488Z,21.63
2022-10-30T06:22:55.464Z,18.17
2022-10-30T06:25:27.127Z,22.10
2022-10-30T06:28:03.842Z,26.57
2022-10-30T06:30:33.289Z,22.90
2022-10-30T06:33:03.251Z,21.33
2022-10-30T06:35:32.409Z,17.70
2022-10-30T06:38:01.131Z,25.30
2022-10-30T06:40:31.154Z,23.50
2022-10-30T06:43:21.058Z,23.50
2022-10-30T06:46:00.846Z,22.80
2022-10-30T06:48:31.352Z,15.80
2022-10-30T06:51:02.971Z,14.37
2022-10-30T06:53:34.543Z,22.23
2022-10-30T06:56:25.905Z,18.17
2022-10-30T06:59:18.128Z,17.90
2022-10-30T07:02:07.161Z,18.10
2022-10-30T07:04:47.172Z,17.27
2022-10-30T07:07:16.443Z,14.47
2022-10-30T07:09:46.497Z,19.33
2022-10-30T07:12:16.453Z,16.90
2022-10-30T07:15:13.681Z,17.60
2022-10-30T07:17:54.972Z,17.60
2022-10-30T07:20:25.202Z,15.90
2022-10-30T07:22:53.584Z,16.50
2022-10-30T07:25:22.125Z,19.13
2022-10-30T07:28:16.521Z,20.53
2022-10-30T07:30:53.364Z,24.00
2022-10-30T07:33:29.182Z,16.80
2022-10-30T07:36:01.675Z,16.60
2022-10-30T07:38:46.375Z,19.77
2022-10-30T07:41:26.651Z,16.60
2022-10-30T07:44:13.438Z,19.60
2022-10-30T07:47:13.355Z,23.67
2022-10-30T07:49:57.077Z,21.67
2022-10-30T07:52:25.237Z,25.93
2022-10-30T07:54:54.095Z,23.03
2022-10-30T07:57:49.181Z,21.97
2022-10-30T08:00:35.932Z,21.13
2022-10-30T08:03:21.298Z,20.17
2022-10-30T08:06:00.135Z,21.90
2022-10-30T08:08:40.488Z,23.30
2022-10-30T08:11:30.382Z,22.50
2022-10-30T08:14:01.399Z,21.63
2022-10-30T08:16:29.698Z,23.20
2022-10-30T08:19:00.479Z,23.17
2022-10-30T08:21:29.334Z,21.17
2022-10-30T08:24:05.942Z,21.80
2022-10-30T08:26:36.058Z,20.40
2022-10-30T08:29:05.261Z,22.70
2022-10-30T08:31:34.130Z,24.23
2022-10-30T08:34:06.713Z,21.37
2022-10-30T08:37:01.114Z,25.13
2022-10-30T08:39:29.600Z,18.23
2022-10-30T08:42:16.661Z,26.93
2022-10-30T08:44:46.309Z,22.00
2022-10-30T08:47:45.273Z,18.70
2022-10-30T08:50:19.131Z,17.70
2022-10-30T08:52:50.744Z,16.10
2022-10-30T08:55:22.782Z,14.63
2022-10-30T08:57:51.269Z,20.07
2022-10-30T09:00:19.690Z,18.37
2022-10-30T09:03:06.448Z,14.60
2022-10-30T09:05:54.384Z,13.63
2022-10-30T09:08:45.063Z,20.93
2022-10-30T09:11:18.643Z,15.67
2022-10-30T09:13:46.803Z,14.73
2022-10-30T09:16:14.951Z,17.50
2022-10-30T09:18:43.430Z,20.33
2022-10-30T09:21:13.024Z,17.83
2022-10-30T09:23:51.585Z,18.07
2022-10-30T09:26:39.673Z,20.70
2022-10-30T09:29:14.839Z,16.90
2022-10-30T09:31:58.054Z,18.50
2022-10-30T09:37:24.236Z,19.50
2022-10-30T09:39:57.526Z,18.47
2022-10-30T09:42:42.157Z,19.10
2022-10-30T09:45:30.553Z,17.97
2022-10-30T09:48:15.423Z,14.63
2022-10-30T09:50:59.590Z,14.77
2022-10-30T09:53:43.357Z,29.07
2022-10-30T09:56:28.143Z,14.10
2022-10-30T09:59:09.204Z,11.70
2022-10-30T10:01:45.372Z,13.20
2022-10-30T10:04:26.606Z,13.70
2022-10-30T10:07:21.758Z,10.40
2022-10-30T10:10:31.675Z,16.63
2022-10-30T10:13:12.581Z,11.27
2022-10-30T10:15:44.793Z,12.30
2022-10-30T10:18:19.116Z,14.10
2022-10-30T10:20:51.225Z,12.47
2022-10-30T10:23:20.760Z,8.80
2022-10-30T10:25:54.815Z,8.13
2022-10-30T10:28:39.723Z,11.13
2022-10-30T10:31:21.805Z,10.60
2022-10-30T10:34:01.936Z,13.37
2022-10-30T10:36:38.522Z,10.00
2022-10-30T10:39:29.316Z,9.97
2022-10-30T10:42:10.695Z,7.70
2022-10-30T10:44:50.451Z,10.40
2022-10-30T10:47:37.941Z,9.60
2022-10-30T10:50:23.117Z,13.83
2022-10-30T10:52:57.825Z,18.30
2022-10-30T10:55:29.592Z,10.80
2022-10-30T10:58:05.741Z,10.40
2022-10-30T11:00:34.509Z,12.40
2022-10-30T11:03:10.477Z,8.33
2022-10-30T11:05:43.072Z,12.20
2022-10-30T11:08:16.252Z,12.13
2022-10-30T11:10:44.446Z,12.77
2022-10-30T11:13:15.121Z,8.60
2022-10-30T11:15:56.418Z,11.87
2022-10-30T11:18:24.584Z,13.67
2022-10-30T11:21:00.581Z,10.67
2022-10-30T11:23:34.148Z,8.60
2022-10-30T11:26:03.374Z,10.90
2022-10-30T11:28:40.154Z,7.57
2022-10-30T11:31:23.155Z,14.33
2022-10-30T11:33:51.857Z,12.53
2022-10-30T11:36:24.317Z,9.70
2022-10-30T11:38:53.065Z,8.73
2022-10-30T11:41:21.887Z,16.77
2022-10-30T11:43:51.441Z,10.33
2022-10-30T11:46:23.815Z,8.57
2022-10-30T11:48:54.855Z,13.47
2022-10-30T11:51:36.973Z,11.43
2022-10-30T11:54:07.332Z,9.07
2022-10-30T11:56:36.456Z,11.50
2022-10-30T11:59:06.620Z,11.83
2022-10-30T12:01:36.954Z,11.50
2022-10-30T12:04:24.251Z,10.27
2022-10-30T12:07:07.641Z,8.00
2022-10-30T12:09:44.256Z,10.20
2022-10-30T12:12:13.962Z,8.90
2022-10-30T12:14:43.503Z,9.40
2022-10-30T12:17:16.835Z,12.60
2022-10-30T12:19:50.242Z,9.97
2022-10-30T12:22:32.702Z,8.10
2022-10-30T12:25:04.609Z,9.70
2022-10-30T12:27:37.715Z,17.70
2022-10-30T12:30:17.510Z,19.47
2022-10-30T12:32:51.041Z,8.10
2022-10-30T12:35:34.747Z,10.70
2022-10-30T12:38:07.183Z,10.33
2022-10-30T12:40:42.342Z,7.73
2022-10-30T12:43:18.936Z,11.83
2022-10-30T12:45:52.179Z,9.87
2022-10-30T12:48:27.542Z,10.73
2022-10-30T12:51:15.939Z,13.57
2022-10-30T12:53:51.943Z,12.97
2022-10-30T12:56:27.885Z,10.87
2022-10-30T12:59:03.954Z,10.10
2022-10-30T13:01:37.929Z,9.17
2022-10-30T13:04:11.523Z,10.40
2022-10-30T13:06:47.419Z,9.00
2022-10-30T13:09:21.325Z,10.00
2022-10-30T13:11:54.970Z,11.83
2022-10-30T13:14:39.530Z,6.47
2022-10-30T13:17:20.431Z,14.40
2022-10-30T13:19:51.045Z,8.30
2022-10-30T13:22:26.078Z,12.83
2022-10-30T13:25:04.030Z,12.10
2022-10-30T13:27:41.994Z,8.27
2022-10-30T13:30:15.368Z,17.40
2022-10-30T13:32:59.424Z,12.23
2022-10-30T13:35:34.290Z,10.77
2022-10-30T13:38:21.142Z,16.30
2022-10-30T13:40:57.322Z,10.00
2022-10-30T13:43:31.306Z,11.57
2022-10-30T13:46:22.278Z,10.70
2022-10-30T13:49:12.403Z,10.80
2022-10-30T13:51:44.639Z,11.67
2022-10-30T13:54:20.553Z,10.77
2022-10-30T13:56:49.699Z,9.07
2022-10-30T13:59:33.199Z,9.27
2022-10-30T14:02:10.235Z,10.20
2022-10-30T14:04:47.336Z,15.20
2022-10-30T14:07:31.138Z,11.33
2022-10-30T14:10:08.612Z,10.50
2022-10-30T14:12:45.903Z,14.03
2022-10-30T14:15:26.716Z,11.60
2022-10-30T14:18:30.494Z,9.77
2022-10-30T14:21:20.674Z,11.03
2022-10-30T14:23:48.871Z,8.20
2022-10-30T14:26:21.975Z,8.57
2022-10-30T14:28:52.157Z,10.70
2022-10-30T14:31:33.710Z,7.33
2022-10-30T14:34:02.072Z,11.77
2022-10-30T14:36:52.231Z,17.23
2022-10-30T14:39:29.120Z,9.30
2022-10-30T14:42:06.838Z,14.00
2022-10-30T14:45:00.381Z,12.43
2022-10-30T14:47:49.611Z,8.73
2022-10-30T14:50:34.109Z,7.80
2022-10-30T14:53:33.950Z,8.70
2022-10-30T14:56:08.193Z,9.87
2022-10-30T14:58:38.076Z,8.43
2022-10-30T15:01:31.938Z,8.57
2022-10-30T15:04:13.824Z,7.00
2022-10-30T15:06:54.563Z,6.90
2022-10-30T15:09:39.738Z,9.73
2022-10-30T15:12:26.701Z,10.43
2022-10-30T15:14:58.470Z,8.63
2022-10-30T15:17:31.744Z,10.90
2022-10-30T15:20:02.348Z,12.27
2022-10-30T15:22:31.429Z,10.27
2022-10-30T15:25:02.471Z,15.33
2022-10-30T15:27:32.960Z,12.97
2022-10-30T15:30:04.112Z,7.80
2022-10-30T15:32:32.383Z,13.43
2022-10-30T15:35:03.044Z,16.73
2022-10-30T15:37:31.936Z,19.60
2022-10-30T15:40:19.141Z,12.33
2022-10-30T15:42:53.651Z,8.00
2022-10-30T15:45:25.022Z,14.83
2022-10-30T15:48:00.480Z,13.60
2022-10-30T15:50:29.616Z,11.73
2022-10-30T15:52:58.159Z,10.27
2022-10-30T15:55:30.679Z,10.13
2022-10-30T15:58:04.007Z,12.33
2022-10-30T16:00:37.530Z,9.90
2022-10-30T16:03:07.498Z,8.80
2022-10-30T16:05:36.470Z,12.60
2022-10-30T16:08:13.104Z,13.73
2022-10-30T16:10:45.315Z,15.30
2022-10-30T16:13:18.794Z,15.00
2022-10-30T16:15:49.654Z,14.80
2022-10-30T16:18:20.878Z,26.20
2022-10-30T16:20:51.950Z,20.63
2022-10-30T16:23:21.596Z,27.13
2022-10-30T16:25:55.735Z,13.37
2022-10-30T16:28:30.388Z,17.87
2022-10-30T16:31:01.714Z,18.20
2022-10-30T16:33:33.078Z,13.20
2022-10-30T16:36:03.352Z,14.37
2022-10-30T16:38:36.788Z,14.53
2022-10-30T16:41:08.198Z,14.87
2022-10-30T16:43:36.494Z,15.93
2022-10-30T16:46:37.464Z,17.90
2022-10-30T16:49:09.941Z,11.50
2022-10-30T16:51:40.245Z,16.37
2022-10-30T16:54:21.351Z,17.20
2022-10-30T16:56:53.990Z,16.33
2022-10-30T16:59:29.220Z,19.07
2022-10-30T17:02:05.804Z,13.93
2022-10-30T17:04:36.111Z,15.57
2022-10-30T17:07:08.411Z,13.23
2022-10-30T17:09:38.897Z,19.23
2022-10-30T17:12:19.628Z,14.20
2022-10-30T17:14:53.068Z,15.40
2022-10-30T17:17:32.930Z,13.00
2022-10-30T17:20:04.098Z,12.87
2022-10-30T17:22:32.695Z,11.83
2022-10-30T17:25:01.367Z,11.67
2022-10-30T17:27:46.820Z,13.53
2022-10-30T17:30:45.964Z,16.00
2022-10-30T17:33:26.675Z,19.97
2022-10-30T17:38:28.581Z,16.93
2022-10-30T17:40:57.000Z,14.93
2022-10-30T17:43:29.631Z,29.03
2022-10-30T17:45:58.437Z,15.93
2022-10-30T17:48:28.666Z,13.07
2022-10-30T17:50:57.297Z,13.20
2022-10-30T17:53:28.354Z,15.50
2022-10-30T17:56:01.110Z,15.43
2022-10-30T17:58:31.000Z,12.03
2022-10-30T18:00:59.440Z,20.23
2022-10-30T18:03:28.071Z,14.43
2022-10-30T18:05:58.380Z,10.57
2022-10-30T18:08:26.734Z,13.90
2022-10-30T18:10:55.116Z,17.57
2022-10-30T18:13:23.476Z,10.00
2022-10-30T18:15:57.534Z,10.63
2022-10-30T18:18:25.777Z,10.27
2022-10-30T18:20:54.009Z,15.63
2022-10-30T18:23:50.834Z,10.50
2022-10-30T18:26:16.342Z,14.23
2022-10-30T18:28:45.147Z,16.23
2022-10-30T18:31:16.997Z,12.53
2022-10-30T18:33:46.192Z,10.87
2022-10-30T18:36:16.642Z,15.50
2022-10-30T18:38:44.876Z,12.73
2022-10-30T18:41:16.459Z,16.03
2022-10-30T18:43:46.951Z,12.23
2022-10-30T18:46:18.247Z,12.17
2022-10-30T18:48:47.003Z,11.80
2022-10-30T18:51:19.740Z,12.70
2022-10-30T18:53:52.423Z,10.90
2022-10-30T18:56:22.432Z,14.60
2022-10-30T18:58:54.795Z,12.27
2022-10-30T19:01:28.649Z,17.47
2022-10-30T19:04:00.985Z,17.57
2022-10-30T19:06:29.618Z,12.77
2022-10-30T19:08:57.905Z,13.23
2022-10-30T19:11:28.276Z,11.60
2022-10-30T19:13:59.025Z,14.80
2022-10-30T19:16:29.829Z,10.80
2022-10-30T19:18:58.539Z,15.80
2022-10-30T19:21:28.116Z,11.80
2022-10-30T19:23:56.736Z,9.93
2022-10-30T19:26:25.118Z,15.60
2022-10-30T19:28:53.519Z,15.43
2022-10-30T19:31:21.825Z,11.73
2022-10-30T19:33:53.200Z,13.10
2022-10-30T19:36:31.883Z,10.10
2022-10-30T19:39:07.552Z,10.20
2022-10-30T19:41:37.160Z,14.87
2022-10-30T19:44:05.616Z,14.03
2022-10-30T19:46:33.878Z,17.80
2022-10-30T19:49:13.523Z,13.27
2022-10-30T19:51:41.788Z,12.20
2022-10-30T19:54:10.512Z,15.47
2022-10-30T19:56:39.110Z,13.23
2022-10-30T19:59:10.193Z,14.60
2022-10-30T20:01:38.443Z,16.30
2022-10-30T20:04:08.211Z,16.40
2022-10-30T20:06:36.949Z,16.17
2022-10-30T20:09:05.428Z,14.57
2022-10-30T20:11:33.734Z,16.23
2022-10-30T20:14:01.955Z,11.33
2022-10-30T20:16:30.218Z,15.80
2022-10-30T20:18:58.585Z,13.77
2022-10-30T20:21:28.585Z,12.10
2022-10-30T20:23:56.720Z,19.83
2022-10-30T20:26:27.621Z,16.20
2022-10-30T20:28:56.293Z,19.10
2022-10-30T20:31:24.443Z,18.70
2022-10-30T20:33:52.712Z,18.57
2022-10-30T20:36:21.161Z,16.03
2022-10-30T20:38:50.701Z,14.77
2022-10-30T20:41:24.096Z,15.00
2022-10-30T20:43:52.627Z,20.50
2022-10-30T20:46:21.548Z,15.73
2022-10-30T20:48:49.819Z,18.57
2022-10-30T20:51:18.052Z,16.03
2022-10-30T20:53:46.816Z,16.97
2022-10-30T20:56:16.424Z,16.17
2022-10-30T20:58:44.965Z,15.80
2022-10-30T21:01:14.130Z,20.73
2022-10-30T21:03:42.891Z,16.93
2022-10-30T21:06:11.124Z,19.57
2022-10-30T21:08:39.300Z,25.90
2022-10-30T21:11:08.344Z,22.20
2022-10-30T21:13:38.172Z,22.23
2022-10-30T21:16:08.823Z,24.40
2022-10-30T21:18:36.983Z,30.10
2022-10-30T21:21:07.301Z,14.27
2022-10-30T21:23:35.634Z,12.03
2022-10-30T21:26:05.388Z,11.63
2022-10-30T21:28:33.803Z,12.70
2022-10-30T21:31:05.266Z,23.53
2022-10-30T21:33:34.526Z,13.63
2022-10-30T21:36:11.659Z,17.67
2022-10-30T21:38:42.594Z,14.60
2022-10-30T21:41:12.361Z,9.27
2022-10-30T21:43:40.523Z,11.90
2022-10-30T21:46:12.155Z,10.50
2022-10-30T21:48:40.672Z,12.97
2022-10-30T21:51:10.668Z,13.03
2022-10-30T21:53:40.027Z,13.13
2022-10-30T21:56:09.770Z,15.33
2022-10-30T21:58:38.186Z,10.70
2022-10-30T22:01:07.702Z,9.47
2022-10-30T22:03:37.265Z,14.20
2022-10-30T22:06:10.059Z,9.77
2022-10-30T22:08:38.317Z,10.37
2022-10-30T22:11:08.385Z,15.80
2022-10-30T22:13:37.739Z,12.17
2022-10-30T22:16:07.544Z,8.90
2022-10-30T22:18:37.446Z,14.30
2022-10-30T22:21:07.834Z,12.30
2022-10-30T22:23:37.384Z,8.33
2022-10-30T22:26:08.535Z,8.97
2022-10-30T22:28:36.673Z,9.77
2022-10-30T22:31:05.493Z,9.10
2022-10-30T22:33:34.052Z,12.13
2022-10-30T22:36:05.435Z,10.77
2022-10-30T22:38:33.813Z,8.20
2022-10-30T22:41:09.383Z,9.50
2022-10-30T22:43:37.542Z,9.20
2022-10-30T22:46:05.848Z,13.93
2022-10-30T22:48:34.248Z,16.50
2022-10-30T22:51:07.709Z,9.63
2022-10-30T22:53:38.916Z,13.27
2022-10-30T22:56:18.486Z,10.20
2022-10-30T22:58:48.246Z,11.77
2022-10-30T23:01:18.944Z,17.50
2022-10-30T23:03:47.569Z,12.70
2022-10-30T23:06:17.225Z,11.77
2022-10-30T23:08:46.040Z,10.90
2022-10-30T23:11:14.834Z,9.53
2022-10-30T23:13:43.071Z,14.30
2022-10-30T23:16:15.908Z,10.13
2022-10-30T23:18:44.946Z,11.13
2022-10-30T23:21:15.239Z,9.30
2022-10-30T23:23:45.145Z,8.50
2022-10-30T23:26:15.162Z,13.80
2022-10-30T23:28:44.004Z,7.83
2022-10-30T23:31:18.669Z,11.07
2022-10-30T23:33:48.002Z,13.80
2022-10-30T23:36:17.022Z,11.50
2022-10-30T23:38:50.981Z,9.10
2022-10-30T23:41:19.135Z,9.47
2022-10-30T23:43:47.327Z,11.80
2022-10-30T23:46:15.567Z,7.80
2022-10-30T23:48:43.706Z,13.83
2022-10-30T23:51:11.952Z,19.40
2022-10-30T23:53:40.231Z,13.37
2022-10-30T23:56:10.029Z,8.17
2022-10-30T23:58:38.307Z,8.57
